Time;durP1;ratioP1;P1;durP2;ratioP2;P2;SDS_P1;SDS_P2;PMS_P1;PMS_P2;Temp;Humidity;BMP_temperature;BMP_pressure;BME280_temperature;BME280_humidity;BME280_pressure;Samples;Min_cycle;Max_cycle;Signal;HPM_P1;HPM_P2
2022/01/10 00:00:15;;;;;;;80.23;36.97;;;;;;;2.86;65.91;99439.78;4941155;28;101265;-87
2022/01/10 00:02:42;;;;;;;88.97;38.25;;;;;;;2.93;65.99;99447.41;4972228;28;97783;-88
2022/01/10 00:05:08;;;;;;;84.80;36.03;;;;;;;2.95;65.77;99444.81;4938603;28;97036;-87
2022/01/10 00:07:34;;;;;;;85.70;38.47;;;;;;;2.93;65.81;99452.59;4923623;28;96884;-86
2022/01/10 00:10:02;;;;;;;91.93;38.43;;;;;;;2.89;65.90;99452.69;4922987;28;101470;-86
2022/01/10 00:12:28;;;;;;;90.60;39.13;;;;;;;3.06;65.79;99460.19;4938344;28;101858;-86
2022/01/10 00:14:53;;;;;;;87.17;39.70;;;;;;;2.94;65.77;99467.31;4939320;28;96639;-86
2022/01/10 00:17:19;;;;;;;85.90;39.73;;;;;;;2.91;65.68;99472.53;4938758;28;96810;-87
2022/01/10 00:19:44;;;;;;;89.17;39.23;;;;;;;2.84;66.08;99467.47;4980446;28;101451;-87
2022/01/10 00:22:11;;;;;;;88.10;39.53;;;;;;;2.91;66.05;99479.47;4937508;28;101564;-89
2022/01/10 00:24:37;;;;;;;78.27;35.67;;;;;;;2.74;66.07;99447.78;4955418;28;96755;-87
2022/01/10 00:27:03;;;;;;;80.70;35.87;;;;;;;2.66;66.12;99435.78;4939037;28;96983;-86
2022/01/10 00:29:29;;;;;;;78.67;35.93;;;;;;;2.98;66.15;99494.03;4954502;28;101418;-86
2022/01/10 00:31:57;;;;;;;86.30;39.20;;;;;;;2.88;66.39;99489.84;4954886;28;100616;-86
2022/01/10 00:34:24;;;;;;;79.43;36.30;;;;;;;2.83;66.18;99476.13;4971364;28;97162;-86
2022/01/10 00:36:50;;;;;;;75.40;35.20;;;;;;;3.02;65.77;99500.88;4971741;28;96834;-86
2022/01/10 00:39:15;;;;;;;80.77;37.10;;;;;;;3.03;65.55;99500.00;4980961;28;98342;-86
2022/01/10 00:41:41;;;;;;;82.50;37.27;;;;;;;2.96;65.74;99482.81;4974741;28;97447;-87
2022/01/10 00:44:09;;;;;;;72.17;34.90;;;;;;;2.94;65.96;99492.38;4957682;28;97040;-86
2022/01/10 00:46:35;;;;;;;76.50;36.80;;;;;;;2.89;65.62;99482.06;4958286;28;96884;-87
2022/01/10 00:49:00;;;;;;;81.73;37.17;;;;;;;2.94;65.73;99500.16;4957631;28;101174;-87
2022/01/10 00:51:26;;;;;;;79.67;38.27;;;;;;;2.98;66.09;99511.31;4957315;28;97938;-86
2022/01/10 00:53:52;;;;;;;80.90;36.53;;;;;;;2.97;66.50;99518.25;4954624;28;96879;-86
2022/01/10 00:56:19;;;;;;;85.40;38.13;;;;;;;2.79;65.93;99483.09;4954809;28;96839;-87
2022/01/10 00:58:44;;;;;;;79.77;39.20;;;;;;;3.06;65.80;99523.28;4949039;28;101364;-87
2022/01/10 01:01:10;;;;;;;87.80;39.43;;;;;;;2.83;65.74;99489.94;4955028;28;99648;-87
2022/01/10 01:03:37;;;;;;;83.97;39.10;;;;;;;3.12;65.26;99525.78;4954294;28;96668;-86
2022/01/10 01:06:02;;;;;;;86.33;38.13;;;;;;;2.77;65.93;99500.41;4955044;28;96747;-86
2022/01/10 01:08:31;;;;;;;82.43;38.80;;;;;;;2.79;66.50;99532.34;4937032;28;100446;-87
2022/01/10 01:13:39;;;;;;;82.70;38.90;;;;;;;2.87;65.66;99524.44;4965729;28;96752;-86
2022/01/10 01:24:02;;;;;;;84.63;40.27;;;;;;;2.82;66.19;99547.88;4956211;28;96844;-87
2022/01/10 01:26:33;;;;;;;84.73;39.20;;;;;;;2.88;65.62;99550.38;4956249;28;96779;-86
2022/01/10 01:28:58;;;;;;;82.00;36.37;;;;;;;2.86;65.82;99549.53;4953999;28;101377;-87
2022/01/10 01:31:24;;;;;;;80.93;37.37;;;;;;;2.90;66.00;99548.59;4953712;28;100945;-86
2022/01/10 01:33:50;;;;;;;84.07;37.53;;;;;;;2.64;65.63;99512.69;4953685;28;96891;-87
2022/01/10 01:36:20;;;;;;;78.90;37.47;;;;;;;2.90;65.94;99561.53;4970741;28;96811;-88
2022/01/10 01:38:46;;;;;;;83.87;38.27;;;;;;;2.91;66.13;99558.09;4960846;28;98029;-87
2022/01/10 01:43:44;;;;;;;78.75;37.80;;;;;;;2.88;65.23;99550.38;4973932;28;96589;-87
2022/01/10 01:46:10;;;;;;;78.73;36.03;;;;;;;2.92;65.50;99572.75;4957556;28;97114;-86
2022/01/10 01:48:36;;;;;;;83.07;37.67;;;;;;;2.97;65.43;99575.28;4956500;28;102237;-87
2022/01/10 01:51:03;;;;;;;72.67;35.17;;;;;;;2.93;65.19;99577.06;4969583;28;101013;-87
2022/01/10 01:53:30;;;;;;;83.70;38.23;;;;;;;2.88;65.19;99572.81;4937108;28;96643;-86
2022/01/10 01:55:59;;;;;;;76.73;37.07;;;;;;;2.92;65.47;99590.91;4954170;28;97256;-87
2022/01/10 01:58:26;;;;;;;81.30;38.20;;;;;;;2.88;65.63;99593.56;4936368;28;99924;-87
2022/01/10 02:00:52;;;;;;;83.60;38.83;;;;;;;2.98;65.10;99594.31;4937398;28;99660;-87
2022/01/10 02:03:17;;;;;;;83.50;39.33;;;;;;;2.72;65.12;99578.22;4953719;28;96714;-88
2022/01/10 02:05:47;;;;;;;79.60;37.70;;;;;;;2.78;65.40;99605.78;4954217;28;96758;-87
2022/01/10 02:08:13;;;;;;;78.80;37.23;;;;;;;2.82;65.67;99615.25;4953526;28;98483;-87
2022/01/10 02:10:39;;;;;;;81.40;38.03;;;;;;;2.92;65.16;99611.66;4953160;28;101159;-86
2022/01/10 02:13:04;;;;;;;81.90;37.77;;;;;;;2.86;64.90;99610.88;4937009;28;97076;-87
2022/01/10 02:15:36;;;;;;;80.63;37.27;;;;;;;2.68;65.43;99607.66;4937513;28;96761;-87
2022/01/10 02:18:07;;;;;;;74.87;36.27;;;;;;;2.72;65.43;99609.31;4946854;28;100799;-86
2022/01/10 02:20:33;;;;;;;85.73;37.90;;;;;;;2.75;65.36;99617.94;4973111;28;98065;-87
2022/01/10 02:22:59;;;;;;;81.63;38.20;;;;;;;2.77;65.91;99614.47;4956432;28;96567;-86
2022/01/10 02:25:46;;;;;;;80.03;35.33;;;;;;;2.88;65.51;99627.25;4970320;28;96550;-87
2022/01/10 02:28:12;;;;;;;83.87;38.97;;;;;;;2.84;65.18;99610.91;4955612;28;101467;-86
2022/01/10 02:30:38;;;;;;;77.47;37.83;;;;;;;2.83;65.42;99609.19;4940006;28;101777;-86
2022/01/10 02:33:04;;;;;;;80.90;39.23;;;;;;;3.00;65.18;99628.84;4956796;28;96602;-87
2022/01/10 02:35:37;;;;;;;83.97;37.57;;;;;;;3.03;65.32;99640.03;4940076;28;96908;-87
2022/01/10 02:38:03;;;;;;;83.03;37.70;;;;;;;2.84;65.78;99623.84;4957156;28;98532;-85
2022/01/10 02:40:31;;;;;;;88.67;37.63;;;;;;;2.87;65.39;99634.19;4956586;28;100156;-87
2022/01/10 02:42:57;;;;;;;79.13;37.87;;;;;;;2.99;65.37;99643.53;4972956;28;97045;-84
2022/01/10 02:45:23;;;;;;;80.33;36.07;;;;;;;2.99;65.80;99634.91;4954214;28;97004;-85
2022/01/10 02:47:49;;;;;;;78.33;36.60;;;;;;;3.02;65.37;99650.41;4968332;28;100454;-86
2022/01/10 02:50:17;;;;;;;80.83;37.30;;;;;;;3.03;65.90;99645.22;4953145;28;101370;-86
2022/01/10 02:52:43;;;;;;;80.57;37.40;;;;;;;2.80;65.72;99609.22;4953075;28;97245;-86
2022/01/10 02:55:10;;;;;;;79.13;37.17;;;;;;;3.00;65.53;99647.00;4953524;28;96717;-87
2022/01/10 02:57:37;;;;;;;76.90;35.83;;;;;;;3.03;65.49;99655.59;4952600;28;101628;-86
2022/01/10 03:00:26;;;;;;;77.20;36.67;;;;;;;3.05;65.27;99655.53;4955730;28;101178;-86
2022/01/10 03:02:54;;;;;;;84.33;38.77;;;;;;;3.12;65.31;99657.19;4956659;28;96993;-86
2022/01/10 03:05:23;;;;;;;81.47;37.50;;;;;;;3.10;65.35;99657.19;4973961;28;96851;-86
2022/01/10 03:07:51;;;;;;;82.17;38.60;;;;;;;3.13;65.34;99657.16;4955827;28;100736;-86
2022/01/10 03:10:17;;;;;;;73.83;36.83;;;;;;;3.08;65.32;99652.91;4955868;28;101574;-86
2022/01/10 03:12:43;;;;;;;82.50;36.83;;;;;;;3.20;65.41;99672.63;4954908;28;96885;-87
2022/01/10 03:15:11;;;;;;;76.53;36.27;;;;;;;3.11;65.66;99663.25;4972844;28;97346;-86
2022/01/10 03:17:37;;;;;;;77.67;36.13;;;;;;;3.21;65.50;99679.56;4954985;28;101334;-87
2022/01/10 03:20:05;;;;;;;84.73;39.23;;;;;;;3.20;65.32;99668.31;4955839;28;100129;-87
2022/01/10 03:22:31;;;;;;;79.70;39.13;;;;;;;3.20;65.11;99678.69;4955653;28;96770;-86
2022/01/10 03:24:58;;;;;;;84.33;37.07;;;;;;;3.19;65.48;99697.72;4962083;28;96815;-87
2022/01/10 03:27:25;;;;;;;81.43;37.70;;;;;;;3.25;66.08;99697.63;4952047;28;101364;-88
2022/01/10 03:29:53;;;;;;;87.27;38.57;;;;;;;3.29;65.52;99696.72;4953103;28;100178;-87
2022/01/10 03:32:19;;;;;;;75.93;37.00;;;;;;;3.20;65.21;99680.41;4952738;28;97048;-87
2022/01/10 03:34:46;;;;;;;74.63;36.00;;;;;;;3.31;65.27;99701.88;4952176;28;97507;-87
2022/01/10 03:37:11;;;;;;;81.70;38.40;;;;;;;3.34;65.24;99704.41;4951735;28;101308;-86
2022/01/10 03:39:39;;;;;;;72.87;37.97;;;;;;;3.35;65.41;99716.53;4971281;28;99893;-86
2022/01/10 03:42:06;;;;;;;74.53;35.23;;;;;;;3.38;65.58;99729.47;4955918;28;96793;-86
2022/01/10 03:44:31;;;;;;;74.80;36.37;;;;;;;3.34;65.67;99718.25;4955424;28;96799;-87
2022/01/10 03:46:57;;;;;;;78.93;37.93;;;;;;;3.43;65.57;99727.63;4955166;28;101630;-86
2022/01/10 03:49:25;;;;;;;74.27;36.97;;;;;;;3.44;65.93;99728.53;4939218;28;101823;-87
2022/01/10 03:51:50;;;;;;;101.30;49.30;;;;;;;3.50;65.14;99731.88;4971923;28;96613;-87
2022/01/10 03:54:16;;;;;;;93.10;43.50;;;;;;;3.49;65.08;99734.47;4982509;28;96814;-86
2022/01/10 03:56:43;;;;;;;82.23;39.23;;;;;;;3.51;65.80;99736.16;4958310;28;99069;-86
2022/01/10 03:59:09;;;;;;;81.43;38.43;;;;;;;3.39;65.76;99724.22;4959031;28;100465;-86
2022/01/10 04:01:38;;;;;;;76.93;36.93;;;;;;;3.49;65.32;99747.44;4958229;28;96691;-87
2022/01/10 04:04:06;;;;;;;72.77;36.20;;;;;;;3.42;65.61;99749.28;4958917;28;97140;-86
2022/01/10 04:06:32;;;;;;;75.20;36.60;;;;;;;3.49;65.65;99744.84;4942221;28;101278;-86
2022/01/10 04:08:58;;;;;;;75.53;37.27;;;;;;;3.49;66.03;99750.03;4941080;28;101001;-87
2022/01/10 04:11:24;;;;;;;81.60;39.97;;;;;;;3.28;65.79;99707.94;4958136;28;97074;-87
2022/01/10 04:13:50;;;;;;;93.80;44.07;;;;;;;3.54;65.81;99761.22;4957414;28;96886;-87
2022/01/10 04:16:16;;;;;;;84.97;42.67;;;;;;;3.51;66.04;99761.28;4958629;28;100873;-87
2022/01/10 04:18:42;;;;;;;88.87;43.20;;;;;;;3.56;66.10;99773.31;4958442;28;101040;-87
2022/01/10 04:21:08;;;;;;;90.80;44.17;;;;;;;3.61;65.94;99774.09;4942640;28;96588;-86
2022/01/10 04:23:34;;;;;;;84.50;42.20;;;;;;;3.54;66.07;99764.66;4977615;28;96923;-87
2022/01/10 04:26:00;;;;;;;76.13;37.40;;;;;;;3.65;65.60;99784.44;4957774;28;101723;-87
2022/01/10 04:28:30;;;;;;;79.73;38.10;;;;;;;3.56;65.67;99781.09;4958216;28;101450;-90
2022/01/10 04:30:55;;;;;;;77.07;37.73;;;;;;;3.61;66.06;99797.47;4958498;28;96605;-87
2022/01/10 04:33:27;;;;;;;76.37;36.93;;;;;;;3.55;65.55;99778.50;4942057;28;96775;-86
2022/01/10 04:35:52;;;;;;;74.30;35.10;;;;;;;3.65;65.71;99794.81;4974336;28;98784;-86
2022/01/10 04:38:18;;;;;;;76.27;35.83;;;;;;;3.50;66.07;99796.75;4957971;28;100596;-87
2022/01/10 04:40:44;;;;;;;72.67;35.73;;;;;;;3.52;66.00;99807.97;4957568;28;99659;-86
2022/01/10 04:43:10;;;;;;;74.53;36.60;;;;;;;3.55;66.11;99820.91;4974368;28;97264;-86
2022/01/10 04:45:36;;;;;;;72.73;36.57;;;;;;;3.54;66.26;99819.19;4973771;28;101287;-88
2022/01/10 04:48:02;;;;;;;75.40;36.30;;;;;;;3.52;66.18;99822.66;4973886;28;101137;-86
2022/01/10 04:52:53;;;;;;;80.33;37.17;;;;;;;3.50;66.48;99825.28;4974229;28;97773;-86
2022/01/10 04:55:19;;;;;;;80.67;36.00;;;;;;;3.50;66.43;99827.88;4974476;28;101265;-87
2022/01/10 04:57:46;;;;;;;76.10;37.43;;;;;;;3.47;65.80;99811.50;4957481;28;101582;-87
2022/01/10 05:00:15;;;;;;;83.07;37.63;;;;;;;3.53;65.53;99835.63;4948026;28;96802;-87
2022/01/10 05:02:43;;;;;;;76.90;36.20;;;;;;;3.52;64.80;99836.53;4957468;28;96820;-88
2022/01/10 05:05:09;;;;;;;69.17;32.13;;;;;;;3.44;64.50;99834.91;4941736;28;100081;-86
2022/01/10 05:07:35;;;;;;;70.00;32.83;;;;;;;3.40;64.61;99840.13;4957420;28;101040;-90
2022/01/10 05:10:02;;;;;;;65.97;32.70;;;;;;;3.40;64.35;99845.31;4957847;28;96562;-87
2022/01/10 05:12:33;;;;;;;59.45;30.85;;;;;;;3.36;64.39;99855.75;4941798;28;97045;-87
2022/01/10 05:14:58;;;;;;;62.20;31.67;;;;;;;3.33;64.06;99860.97;4956615;28;102023;-87
2022/01/10 05:17:25;;;;;;;64.27;31.80;;;;;;;3.30;64.33;99861.00;4974155;28;98113;-86
2022/01/10 05:19:51;;;;;;;57.27;30.33;;;;;;;3.22;64.19;99855.91;4941673;28;96906;-87
2022/01/10 05:22:17;;;;;;;53.40;28.87;;;;;;;3.28;64.40;99871.41;4958139;28;96689;-87
2022/01/10 05:24:43;;;;;;;59.93;29.40;;;;;;;3.14;63.91;99855.13;4957107;28;101340;-87
2022/01/10 05:27:08;;;;;;;55.23;28.77;;;;;;;3.22;63.68;99862.81;4950355;28;101075;-87
2022/01/10 05:29:34;;;;;;;55.00;27.77;;;;;;;3.31;64.00;99871.34;4921900;28;96684;-87
2022/01/10 05:32:00;;;;;;;55.37;28.40;;;;;;;3.22;63.42;99858.50;4922281;28;96795;-86
2022/01/10 05:34:36;;;;;;;52.63;27.80;;;;;;;3.25;63.67;99876.63;4971592;28;100120;-88
2022/01/10 05:37:02;;;;;;;54.87;28.77;;;;;;;3.04;63.46;99837.97;4954211;28;98472;-86
2022/01/10 05:39:28;;;;;;;51.93;27.20;;;;;;;3.35;63.63;99890.38;4946547;28;97096;-86
2022/01/10 05:41:53;;;;;;;48.27;27.40;;;;;;;3.05;63.49;99853.50;4937491;28;97017;-87
2022/01/10 05:44:19;;;;;;;52.97;25.50;;;;;;;3.32;63.41;99903.38;4937371;28;100992;-86
2022/01/10 05:46:46;;;;;;;52.00;27.03;;;;;;;3.22;63.27;99899.16;4936936;28;101391;-86
2022/01/10 05:49:13;;;;;;;52.27;27.07;;;;;;;3.28;63.29;99905.13;4956860;28;97041;-84
2022/01/10 05:51:40;;;;;;;46.70;25.87;;;;;;;3.13;63.42;99884.53;4990497;28;96810;-88
2022/01/10 05:54:24;;;;;;;48.00;25.60;;;;;;;3.31;63.52;99918.06;4974416;28;97080;-93
2022/01/10 05:56:52;;;;;;;52.60;27.13;;;;;;;3.29;63.55;99916.38;4952772;28;101704;-93
2022/01/10 05:59:18;;;;;;;53.77;26.40;;;;;;;3.31;63.52;99920.66;4956146;28;96738;-93
2022/01/10 06:01:43;;;;;;;52.67;28.17;;;;;;;3.28;63.45;99925.03;4954693;28;96715;-94
2022/01/10 06:04:16;;;;;;;50.07;25.93;;;;;;;3.33;63.22;99931.88;4939043;28;101259;-93
2022/01/10 06:06:44;;;;;;;53.70;26.63;;;;;;;3.29;63.23;99932.81;4957604;28;100365;-95
2022/01/10 06:09:10;;;;;;;51.90;26.03;;;;;;;3.29;63.48;99945.78;4943572;28;96660;-90
2022/01/10 06:11:36;;;;;;;50.47;26.90;;;;;;;3.30;63.09;99952.66;4956277;28;96952;-94
2022/01/10 06:14:02;;;;;;;60.27;28.03;;;;;;;3.38;63.10;99965.56;4953064;28;100220;-93
2022/01/10 06:16:28;;;;;;;48.80;26.47;;;;;;;3.26;63.38;99958.78;4956399;28;101027;-91
2022/01/10 06:18:55;;;;;;;50.03;27.20;;;;;;;3.27;63.38;99978.66;4951685;28;96967;-92
2022/01/10 06:21:21;;;;;;;51.20;26.80;;;;;;;3.24;63.38;99978.69;4952652;28;96793;-92
2022/01/10 06:23:46;;;;;;;50.90;26.40;;;;;;;3.37;63.14;100001.03;4970269;28;101759;-91
2022/01/10 06:26:14;;;;;;;51.80;27.13;;;;;;;2.86;63.24;99920.25;4956859;28;101117;-91
2022/01/10 06:28:40;;;;;;;47.10;24.27;;;;;;;3.32;62.78;100009.75;4973538;28;96734;-87
2022/01/10 06:31:07;;;;;;;53.20;25.93;;;;;;;3.34;63.14;100029.59;4957951;28;97058;-90
2022/01/10 06:33:41;;;;;;;50.93;26.20;;;;;;;3.17;63.09;99990.84;4958521;28;98549;-91
2022/01/10 06:36:09;;;;;;;46.80;24.77;;;;;;;3.09;63.09;99987.47;4957337;28;100543;-86
2022/01/10 06:38:37;;;;;;;51.50;24.43;;;;;;;3.20;63.14;100018.50;4953808;28;96947;-87
2022/01/10 06:41:02;;;;;;;55.17;27.87;;;;;;;3.00;63.35;100004.84;5005126;28;96957;-86
2022/01/10 06:43:28;;;;;;;56.63;26.63;;;;;;;2.81;63.44;99970.41;4972620;28;100482;-89
2022/01/10 06:45:54;;;;;;;50.37;26.30;;;;;;;3.21;63.68;100043.56;4957409;28;101587;-91
2022/01/10 06:48:20;;;;;;;52.53;27.13;;;;;;;3.03;63.83;100031.59;4956078;28;96983;-91
2022/01/10 06:50:48;;;;;;;53.80;27.53;;;;;;;3.24;63.57;100045.28;4957476;28;96856;-91
2022/01/10 06:53:16;;;;;;;50.00;26.90;;;;;;;3.26;64.17;100070.34;4957325;28;101544;-92
2022/01/10 06:55:42;;;;;;;49.63;25.87;;;;;;;3.05;63.57;100034.16;4956698;28;101461;-91
2022/01/10 06:58:07;;;;;;;49.43;27.37;;;;;;;3.22;63.83;100070.34;4953690;28;96998;-91
2022/01/10 07:00:35;;;;;;;48.93;25.77;;;;;;;3.10;64.09;100064.38;4959447;28;96643;-91
2022/01/10 07:03:02;;;;;;;53.17;25.97;;;;;;;3.30;63.78;100099.69;4991261;28;102309;-92
2022/01/10 07:05:30;;;;;;;51.20;24.90;;;;;;;3.29;63.28;100105.78;4958962;28;100092;-93
2022/01/10 07:08:04;;;;;;;45.93;24.23;;;;;;;3.04;63.74;100084.34;4963018;28;96997;-91
2022/01/10 07:10:36;;;;;;;52.47;26.00;;;;;;;3.21;63.67;100121.38;4978209;28;96589;-91
2022/01/10 07:13:01;;;;;;;43.80;24.00;;;;;;;3.16;63.74;100124.00;4954258;28;101870;-91
2022/01/10 07:15:29;;;;;;;44.50;22.87;;;;;;;3.01;63.99;100113.75;4977537;28;99997;-90
2022/01/10 07:17:57;;;;;;;46.67;23.87;;;;;;;3.01;64.09;100120.66;4971249;28;96664;-91
2022/01/10 07:20:43;;;;;;;43.13;24.70;;;;;;;3.12;64.28;100144.81;4926137;28;96855;-91
2022/01/10 07:23:08;;;;;;;47.23;24.50;;;;;;;3.03;64.30;100134.50;4940179;28;100684;-91
2022/01/10 07:25:35;;;;;;;50.23;23.97;;;;;;;3.16;64.18;100149.09;4941121;28;101283;-92
2022/01/10 07:28:00;;;;;;;47.00;25.20;;;;;;;3.22;64.12;100143.00;4957024;28;97001;-92
2022/01/10 07:30:26;;;;;;;43.87;23.90;;;;;;;3.28;64.11;100146.41;4958409;28;97563;-91
2022/01/10 07:32:53;;;;;;;48.80;24.37;;;;;;;3.28;63.92;100151.59;4957202;28;99940;-91
2022/01/10 07:35:18;;;;;;;40.83;23.40;;;;;;;3.12;63.75;100131.84;4957537;28;101735;-92
2022/01/10 07:37:44;;;;;;;49.47;23.67;;;;;;;3.35;63.79;100168.00;4973058;28;96655;-90
2022/01/10 07:40:10;;;;;;;44.80;22.97;;;;;;;3.33;63.81;100175.78;4940644;28;97094;-90
2022/01/10 07:42:36;;;;;;;38.43;22.80;;;;;;;2.69;64.28;100099.22;4972644;28;101351;-92
2022/01/10 07:45:15;;;;;;;42.83;23.47;;;;;;;3.13;64.17;100183.69;4975784;28;100399;-91
2022/01/10 07:47:41;;;;;;;45.67;23.63;;;;;;;2.71;64.42;100117.38;4975800;28;97294;-91
2022/01/10 07:50:07;;;;;;;41.77;22.33;;;;;;;2.85;64.28;100162.25;4959899;28;97153;-92
2022/01/10 07:52:33;;;;;;;44.33;21.93;;;;;;;2.57;64.89;100121.78;4959588;28;101410;-91
2022/01/10 07:54:58;;;;;;;45.07;22.43;;;;;;;2.86;64.74;100176.91;4976009;28;96972;-92
2022/01/10 07:57:24;;;;;;;40.57;22.00;;;;;;;2.75;64.45;100159.69;4954988;28;97054;-83
2022/01/10 07:59:50;;;;;;;43.37;22.57;;;;;;;2.93;64.91;100194.16;4971443;28;96812;-87
2022/01/10 08:02:16;;;;;;;47.83;22.67;;;;;;;3.08;64.54;100216.56;4972172;28;100335;-88
2022/01/10 08:04:42;;;;;;;42.00;22.17;;;;;;;3.04;64.58;100224.38;4952364;28;101400;-88
2022/01/10 08:07:07;;;;;;;46.23;22.63;;;;;;;3.15;64.65;100228.63;4970277;28;97029;-91
2022/01/10 08:09:33;;;;;;;42.57;22.30;;;;;;;2.83;64.92;100209.78;4946890;28;97783;-89
2022/01/10 08:12:01;;;;;;;45.20;22.90;;;;;;;2.89;64.72;100227.91;4970572;28;101442;-92
2022/01/10 08:14:31;;;;;;;49.77;24.53;;;;;;;2.82;64.72;100216.72;4954841;28;101261;-90
2022/01/10 08:16:57;;;;;;;48.73;24.43;;;;;;;2.94;64.70;100239.97;4949055;28;96775;-91
2022/01/10 08:19:22;;;;;;;43.17;23.77;;;;;;;3.03;64.65;100252.06;4958612;28;96687;-91
2022/01/10 08:21:48;;;;;;;49.47;24.77;;;;;;;2.90;64.63;100220.09;4963040;28;101177;-91
2022/01/10 08:24:14;;;;;;;49.73;25.73;;;;;;;2.71;63.91;100201.19;4957065;28;101430;-91
2022/01/10 08:26:40;;;;;;;46.03;24.90;;;;;;;3.09;64.26;100265.00;4974473;28;96753;-91
2022/01/10 08:29:07;;;;;;;51.67;25.37;;;;;;;3.08;64.47;100273.63;4955763;28;96959;-90
2022/01/10 08:31:33;;;;;;;47.73;24.40;;;;;;;2.80;64.66;100248.69;4969429;28;98312;-90
2022/01/10 08:34:04;;;;;;;50.33;25.60;;;;;;;2.66;64.40;100230.56;4969499;28;98132;-90
2022/01/10 08:36:29;;;;;;;54.33;26.13;;;;;;;2.90;64.49;100263.31;4944295;28;97720;-91
2022/01/10 08:38:56;;;;;;;50.90;26.40;;;;;;;2.87;64.68;100271.97;4958805;28;96881;-89
2022/01/10 08:41:21;;;;;;;54.00;27.23;;;;;;;3.04;64.31;100281.44;4971158;28;98397;-89
2022/01/10 08:43:47;;;;;;;53.70;26.93;;;;;;;3.15;63.96;100277.06;4974540;28;98378;-88
2022/01/10 08:46:13;;;;;;;51.83;26.60;;;;;;;3.05;64.27;100285.75;4954862;28;97669;-88
2022/01/10 08:48:40;;;;;;;60.83;27.50;;;;;;;3.08;63.75;100260.66;4922256;28;96840;-89
2022/01/10 08:51:06;;;;;;;56.50;26.47;;;;;;;3.10;63.57;100247.69;4960696;28;100144;-89
2022/01/10 08:53:32;;;;;;;57.60;27.87;;;;;;;3.26;63.46;100267.50;4957954;28;99800;-89
2022/01/10 08:55:57;;;;;;;55.13;27.50;;;;;;;3.47;62.93;100282.09;4956370;28;96793;-90
2022/01/10 08:58:25;;;;;;;58.17;28.33;;;;;;;3.56;62.35;100300.19;4970606;28;97009;-88
2022/01/10 09:00:51;;;;;;;59.63;29.20;;;;;;;3.72;62.17;100310.50;4956638;28;100488;-87
2022/01/10 09:03:16;;;;;;;65.03;30.73;;;;;;;3.54;62.16;100275.13;4952406;28;97839;-85
2022/01/10 09:05:42;;;;;;;57.80;30.30;;;;;;;3.90;62.06;100327.69;4988079;28;96603;-85
2022/01/10 09:08:08;;;;;;;61.07;29.03;;;;;;;3.42;61.84;100290.78;4969835;28;97037;-86
2022/01/10 09:10:34;;;;;;;58.13;28.93;;;;;;;3.30;62.04;100284.78;4954022;28;98318;-87
2022/01/10 09:13:00;;;;;;;58.50;29.77;;;;;;;3.62;62.01;100313.16;4969164;28;101671;-87
2022/01/10 09:15:25;;;;;;;61.37;29.07;;;;;;;3.73;61.70;100335.59;4954772;28;96726;-83
2022/01/10 09:17:51;;;;;;;56.67;28.60;;;;;;;3.55;62.22;100340.03;4937375;28;96829;-84
2022/01/10 09:20:17;;;;;;;75.17;32.57;;;;;;;3.52;62.32;100334.84;4955768;28;101563;-84
2022/01/10 09:22:43;;;;;;;65.70;30.03;;;;;;;3.34;62.37;100311.56;4939995;28;101073;-83
2022/01/10 09:25:15;;;;;;;65.10;32.53;;;;;;;3.60;62.26;100348.63;4988935;28;96648;-87
2022/01/10 09:27:42;;;;;;;67.40;33.47;;;;;;;3.48;62.05;100359.06;4940926;28;96963;-86
2022/01/10 09:30:09;;;;;;;69.40;34.77;;;;;;;3.39;62.30;100348.75;4940870;28;101223;-86
2022/01/10 09:32:35;;;;;;;63.50;33.80;;;;;;;3.43;62.17;100357.38;4954663;28;98393;-86
2022/01/10 09:35:00;;;;;;;74.00;33.87;;;;;;;3.55;62.06;100359.91;4940353;28;97385;-89
2022/01/10 09:37:27;;;;;;;73.47;35.63;;;;;;;3.45;62.27;100340.06;4938344;28;96901;-88
2022/01/10 09:39:53;;;;;;;71.10;33.80;;;;;;;3.56;62.02;100362.50;4972579;28;97538;-87
2022/01/10 09:42:19;;;;;;;72.83;35.67;;;;;;;3.72;61.65;100378.00;4955291;28;98366;-87
2022/01/10 09:44:44;;;;;;;77.57;35.27;;;;;;;3.70;61.75;100364.19;4946001;28;96740;-87
2022/01/10 09:47:10;;;;;;;76.70;35.87;;;;;;;3.82;61.39;100380.53;4940179;28;97182;-87
2022/01/10 09:49:36;;;;;;;71.83;36.30;;;;;;;3.90;61.47;100384.81;4964370;28;98307;-88
2022/01/10 09:52:03;;;;;;;78.13;38.57;;;;;;;3.98;61.31;100380.44;4955675;28;98207;-87
2022/01/10 09:54:28;;;;;;;83.23;37.17;;;;;;;4.08;60.66;100390.78;4953228;28;96816;-88
2022/01/10 09:56:54;;;;;;;82.90;37.13;;;;;;;4.19;59.84;100392.44;4956129;28;97925;-86
2022/01/10 09:59:20;;;;;;;81.27;38.30;;;;;;;4.05;60.28;100377.81;4973442;28;98349;-88
2022/01/10 10:01:49;;;;;;;80.23;36.70;;;;;;;4.16;60.12;100408.03;4967780;28;100136;-87
2022/01/10 10:04:15;;;;;;;79.07;39.00;;;;;;;4.24;59.84;100403.66;4971245;28;97389;-89
2022/01/10 10:06:41;;;;;;;91.70;38.23;;;;;;;4.39;59.52;100411.34;4959345;28;96861;-88
2022/01/10 10:09:08;;;;;;;80.87;38.43;;;;;;;4.25;59.88;100419.25;4962921;28;101785;-89
2022/01/10 10:11:43;;;;;;;77.60;37.83;;;;;;;4.19;59.69;100419.31;4955765;28;100929;-88
2022/01/10 10:14:12;;;;;;;72.50;36.83;;;;;;;4.19;60.03;100421.91;4954877;28;97279;-88
2022/01/10 10:16:41;;;;;;;81.23;38.23;;;;;;;4.31;59.61;100403.63;4966415;28;97258;-87
2022/01/10 10:19:07;;;;;;;82.77;40.87;;;;;;;4.48;59.03;100423.41;4953647;28;100826;-88
2022/01/10 10:21:34;;;;;;;75.43;38.73;;;;;;;4.64;59.06;100434.56;4954158;28;101286;-88
2022/01/10 10:24:03;;;;;;;72.27;34.77;;;;;;;4.80;59.02;100432.69;4938762;28;96971;-88
2022/01/10 10:26:30;;;;;;;79.70;36.97;;;;;;;4.83;58.56;100437.88;4953071;28;97095;-87
2022/01/10 10:28:56;;;;;;;72.00;35.33;;;;;;;4.83;58.27;100443.97;4971664;28;101812;-86
2022/01/10 10:31:32;;;;;;;77.43;37.70;;;;;;;4.66;58.51;100427.63;4969965;28;97660;-92
2022/01/10 10:34:01;;;;;;;75.60;39.27;;;;;;;4.55;58.81;100448.50;4969906;28;96720;-92
2022/01/10 10:36:31;;;;;;;80.07;37.80;;;;;;;4.41;59.33;100439.94;4922415;28;97022;-83
2022/01/10 10:39:01;;;;;;;77.93;39.50;;;;;;;4.36;59.56;100447.75;4950640;28;97479;-81
2022/01/10 10:41:26;;;;;;;81.23;39.83;;;;;;;4.35;59.34;100460.78;4970317;28;100530;-82
2022/01/10 10:43:54;;;;;;;87.73;41.13;;;;;;;4.38;59.78;100471.16;4954405;28;97116;-82
2022/01/10 10:46:24;;;;;;;76.67;37.60;;;;;;;4.39;59.93;100480.66;4969998;28;96790;-83
2022/01/10 10:48:52;;;;;;;79.93;40.00;;;;;;;4.45;59.45;100483.22;4955106;28;100889;-82
2022/01/10 10:51:19;;;;;;;78.23;39.00;;;;;;;4.25;59.48;100452.19;4945054;28;101765;-82
2022/01/10 10:53:44;;;;;;;86.20;40.37;;;;;;;4.28;59.87;100484.22;4950897;28;96764;-81
2022/01/10 10:56:10;;;;;;;83.53;40.50;;;;;;;4.18;59.97;100482.50;4934356;28;96851;-81
2022/01/10 10:58:36;;;;;;;79.43;40.00;;;;;;;4.11;60.06;100493.81;4938970;28;101328;-82
2022/01/10 11:01:03;;;;;;;87.30;42.23;;;;;;;3.98;60.22;100467.03;4949151;28;101487;-82
2022/01/10 11:03:29;;;;;;;75.60;39.57;;;;;;;4.26;60.31;100500.69;4937571;28;97282;-82
2022/01/10 11:05:59;;;;;;;93.57;43.83;;;;;;;4.17;59.95;100483.41;4955044;28;96802;-81
2022/01/10 11:08:31;;;;;;;84.00;42.57;;;;;;;4.26;60.11;100504.13;4934812;28;101386;-81
2022/01/10 11:10:58;;;;;;;83.20;40.23;;;;;;;4.20;59.80;100517.16;4952554;28;101500;-81
2022/01/10 11:13:24;;;;;;;77.37;42.00;;;;;;;4.24;60.05;100525.78;4971907;28;97282;-92
2022/01/10 11:15:52;;;;;;;86.17;44.37;;;;;;;4.32;59.69;100521.44;4956950;28;96808;-92
2022/01/10 11:18:17;;;;;;;86.03;42.37;;;;;;;4.37;59.56;100530.06;4972192;28;98426;-92
2022/01/10 11:20:46;;;;;;;81.47;43.10;;;;;;;4.22;59.71;100504.19;4950401;28;97421;-91
2022/01/10 11:23:12;;;;;;;92.53;44.10;;;;;;;4.19;59.52;100493.75;4935922;28;96724;-93
2022/01/10 11:25:40;;;;;;;88.93;42.13;;;;;;;4.59;59.06;100543.78;4969818;28;96891;-92
2022/01/10 11:28:20;;;;;;;89.20;42.27;;;;;;;4.15;59.07;100451.34;4984592;28;101278;-91
2022/01/10 11:30:46;;;;;;;88.47;44.57;;;;;;;4.68;59.14;100535.06;4968201;28;97714;-93
2022/01/10 11:33:21;;;;;;;88.70;44.10;;;;;;;4.64;58.99;100531.63;4942807;28;97143;-93